createdAt,value
2022-10-19T00:01:49.395Z,42.00
2022-10-19T00:04:18.872Z,34.75
2022-10-19T00:06:48.277Z,33.75
2022-10-19T00:09:18.877Z,35.00
2022-10-19T00:11:49.978Z,32.75
2022-10-19T00:14:21.454Z,33.00
2022-10-19T00:16:52.196Z,33.00
2022-10-19T00:19:24.132Z,32.00
2022-10-19T00:21:54.168Z,33.75
2022-10-19T00:24:23.633Z,29.25
2022-10-19T00:26:53.078Z,31.50
2022-10-19T00:29:22.706Z,30.75
2022-10-19T00:31:52.485Z,29.25
2022-10-19T00:34:22.131Z,28.00
2022-10-19T00:36:51.642Z,29.00
2022-10-19T00:39:21.112Z,28.25
2022-10-19T00:41:50.677Z,26.25
2022-10-19T00:44:20.449Z,26.00
2022-10-19T00:46:54.544Z,32.00
2022-10-19T00:49:26.781Z,25.25
2022-10-19T00:52:01.525Z,27.00
2022-10-19T00:54:33.454Z,24.50
2022-10-19T00:57:03.173Z,28.50
2022-10-19T00:59:33.856Z,27.25
2022-10-19T01:02:04.711Z,24.00
2022-10-19T01:04:35.594Z,24.75
2022-10-19T01:07:06.320Z,22.50
2022-10-19T01:09:36.133Z,23.00
2022-10-19T01:12:08.561Z,26.75
2022-10-19T01:14:52.313Z,20.25
2022-10-19T01:17:28.169Z,21.75
2022-10-19T01:20:03.792Z,23.25
2022-10-19T01:22:45.714Z,23.00
2022-10-19T01:25:33.629Z,20.75
2022-10-19T01:28:06.629Z,18.50
2022-10-19T01:30:45.436Z,21.75
2022-10-19T01:33:27.781Z,22.00
2022-10-19T01:36:00.273Z,19.50
2022-10-19T01:38:38.349Z,22.00
2022-10-19T01:41:07.836Z,21.00
2022-10-19T01:43:53.443Z,19.00
2022-10-19T01:46:25.836Z,22.75
2022-10-19T01:49:03.173Z,22.25
2022-10-19T01:51:36.065Z,21.25
2022-10-19T01:54:08.719Z,22.50
2022-10-19T01:56:39.645Z,19.50
2022-10-19T01:59:11.495Z,19.75
2022-10-19T02:01:43.835Z,21.00
2022-10-19T02:04:15.962Z,20.50
2022-10-19T02:06:46.230Z,19.00
2022-10-19T02:09:19.686Z,20.00
2022-10-19T02:11:53.397Z,17.50
2022-10-19T02:14:29.145Z,20.75
2022-10-19T02:17:11.329Z,19.75
2022-10-19T02:19:41.293Z,20.75
2022-10-19T02:22:11.559Z,20.25
2022-10-19T02:24:41.150Z,18.75
2022-10-19T02:27:11.066Z,19.25
2022-10-19T02:29:41.000Z,15.50
2022-10-19T02:32:12.345Z,22.00
2022-10-19T02:34:42.631Z,17.25
2022-10-19T02:37:12.221Z,21.50
2022-10-19T02:39:41.971Z,22.50
2022-10-19T02:42:11.422Z,18.00
2022-10-19T02:44:49.667Z,18.25
2022-10-19T02:47:26.312Z,14.50
2022-10-19T02:49:55.973Z,18.50
2022-10-19T02:52:25.472Z,19.25
2022-10-19T02:54:55.908Z,19.75
2022-10-19T02:57:27.170Z,17.75
2022-10-19T02:59:57.206Z,19.25
2022-10-19T03:02:26.828Z,16.75
2022-10-19T03:04:56.223Z,16.75
2022-10-19T03:07:25.722Z,19.50
2022-10-19T03:09:55.615Z,15.25
2022-10-19T03:12:25.195Z,15.50
2022-10-19T03:14:54.673Z,17.75
2022-10-19T03:17:24.150Z,16.00
2022-10-19T03:19:54.353Z,17.25
2022-10-19T03:22:23.911Z,17.50
2022-10-19T03:24:53.439Z,17.50
2022-10-19T03:27:22.933Z,20.25
2022-10-19T03:29:52.454Z,18.50
2022-10-19T03:32:21.939Z,18.00
2022-10-19T03:34:51.440Z,19.50
2022-10-19T03:37:20.922Z,17.00
2022-10-19T03:39:50.313Z,15.50
2022-10-19T03:42:19.753Z,19.50
2022-10-19T03:44:49.234Z,19.50
2022-10-19T03:47:18.751Z,16.50
2022-10-19T03:49:48.275Z,14.75
2022-10-19T03:52:18.030Z,16.50
2022-10-19T03:54:48.054Z,19.00
2022-10-19T03:57:17.492Z,17.25
2022-10-19T03:59:46.998Z,16.25
2022-10-19T04:02:16.427Z,17.25
2022-10-19T04:04:45.806Z,13.75
2022-10-19T04:07:15.266Z,15.00
2022-10-19T04:09:44.780Z,16.75
2022-10-19T04:12:14.201Z,14.50
2022-10-19T04:14:56.703Z,12.75
2022-10-19T04:17:27.671Z,12.25
2022-10-19T04:19:57.084Z,14.25
2022-10-19T04:22:26.612Z,14.25
2022-10-19T04:24:56.089Z,14.00
2022-10-19T04:27:25.555Z,15.25
2022-10-19T04:29:55.181Z,14.00
2022-10-19T04:32:24.681Z,15.75
2022-10-19T04:34:54.186Z,15.00
2022-10-19T04:37:23.818Z,16.50
2022-10-19T04:39:53.395Z,12.00
2022-10-19T04:42:22.799Z,11.50
2022-10-19T04:44:52.389Z,11.50
2022-10-19T04:47:21.882Z,14.50
2022-10-19T04:49:51.703Z,11.50
2022-10-19T04:52:21.067Z,12.25
2022-10-19T04:54:50.541Z,10.50
2022-10-19T04:57:20.019Z,13.25
2022-10-19T04:59:49.473Z,12.00
2022-10-19T05:02:18.853Z,10.50
2022-10-19T05:04:49.982Z,11.75
2022-10-19T05:07:20.101Z,12.25
2022-10-19T05:09:49.617Z,10.50
2022-10-19T05:12:19.163Z,12.75
2022-10-19T05:14:48.701Z,10.25
2022-10-19T05:17:18.260Z,11.50
2022-10-19T05:19:47.679Z,18.25
2022-10-19T05:22:17.130Z,13.25
2022-10-19T05:24:46.491Z,11.00
2022-10-19T05:27:15.934Z,11.75
2022-10-19T05:29:45.400Z,11.00
2022-10-19T05:32:14.987Z,10.50
2022-10-19T05:34:44.489Z,13.00
2022-10-19T05:37:14.369Z,11.00
2022-10-19T05:39:43.957Z,13.25
2022-10-19T05:42:13.421Z,11.75
2022-10-19T05:44:42.858Z,12.00
2022-10-19T05:47:12.273Z,13.75
2022-10-19T05:49:41.795Z,18.00
2022-10-19T05:52:11.284Z,27.00
2022-10-19T05:54:40.870Z,17.00
2022-10-19T05:57:10.331Z,17.50
2022-10-19T05:59:39.786Z,14.50
2022-10-19T06:02:11.381Z,16.75
2022-10-19T06:04:41.736Z,16.50
2022-10-19T06:07:11.135Z,17.50
2022-10-19T06:09:40.629Z,20.75
2022-10-19T06:12:10.704Z,17.25
2022-10-19T06:14:40.220Z,18.00
2022-10-19T06:17:09.701Z,16.25
2022-10-19T06:19:39.464Z,13.75
2022-10-19T06:22:08.925Z,15.75
2022-10-19T06:24:39.475Z,14.00
2022-10-19T06:27:08.999Z,14.50
2022-10-19T06:29:38.552Z,16.00
2022-10-19T06:32:08.106Z,17.50
2022-10-19T06:34:37.576Z,16.50
2022-10-19T06:37:07.041Z,16.25
2022-10-19T06:39:36.556Z,15.25
2022-10-19T06:42:06.080Z,16.00
2022-10-19T06:44:36.624Z,19.25
2022-10-19T06:47:06.126Z,17.25
2022-10-19T06:49:37.227Z,13.25
2022-10-19T06:52:08.950Z,14.00
2022-10-19T06:54:38.403Z,16.00
2022-10-19T06:57:09.455Z,16.50
2022-10-19T06:59:38.897Z,17.75
2022-10-19T07:02:08.489Z,15.00
2022-10-19T07:04:38.036Z,13.75
2022-10-19T07:07:07.527Z,15.00
2022-10-19T07:09:37.293Z,16.25
2022-10-19T07:12:06.805Z,12.50
2022-10-19T07:14:40.055Z,15.25
2022-10-19T07:17:09.773Z,14.00
2022-10-19T07:19:39.935Z,15.25
2022-10-19T07:22:09.526Z,17.00
2022-10-19T07:24:39.851Z,16.75
2022-10-19T07:27:09.363Z,16.00
2022-10-19T07:29:38.977Z,18.25
2022-10-19T07:32:08.601Z,14.00
2022-10-19T07:34:38.078Z,13.75
2022-10-19T07:37:07.472Z,16.25
2022-10-19T07:39:37.966Z,16.00
2022-10-19T07:42:07.428Z,19.25
2022-10-19T07:44:37.713Z,15.50
2022-10-19T07:47:08.157Z,16.75
2022-10-19T07:49:37.613Z,15.50
2022-10-19T07:52:07.159Z,18.25
2022-10-19T07:54:36.776Z,18.50
2022-10-19T07:57:06.237Z,16.75
2022-10-19T07:59:37.189Z,17.00
2022-10-19T08:02:08.861Z,18.00
2022-10-19T08:04:59.400Z,16.50
2022-10-19T08:07:30.095Z,16.25
2022-10-19T08:09:59.618Z,13.75
2022-10-19T08:12:29.124Z,13.00
2022-10-19T08:14:58.580Z,20.00
2022-10-19T08:17:28.199Z,21.50
2022-10-19T08:19:57.602Z,17.50
2022-10-19T08:22:27.175Z,19.75
2022-10-19T08:24:57.024Z,20.25
2022-10-19T08:27:26.606Z,26.25
2022-10-19T08:29:56.104Z,25.50
2022-10-19T08:32:25.547Z,32.25
2022-10-19T08:34:55.015Z,32.50
2022-10-19T08:37:40.174Z,33.00
2022-10-19T08:40:22.093Z,32.50
2022-10-19T08:42:51.976Z,29.00
2022-10-19T08:45:28.801Z,28.75
2022-10-19T08:48:16.841Z,29.00
2022-10-19T08:50:48.605Z,28.00
2022-10-19T08:53:21.016Z,25.25
2022-10-19T08:56:04.508Z,29.75
2022-10-19T08:58:34.487Z,31.00
2022-10-19T09:01:16.265Z,24.75
2022-10-19T09:04:14.801Z,25.75
2022-10-19T09:06:50.661Z,26.00
2022-10-19T09:09:21.755Z,25.75
2022-10-19T09:11:53.068Z,26.00
2022-10-19T09:14:30.167Z,24.25
2022-10-19T09:17:02.740Z,26.00
2022-10-19T09:19:33.364Z,28.25
2022-10-19T09:22:03.035Z,32.50
2022-10-19T09:24:38.297Z,32.25
2022-10-19T09:27:12.797Z,35.50
2022-10-19T09:29:51.357Z,33.00
2022-10-19T09:32:23.895Z,32.00
2022-10-19T09:34:55.698Z,34.00
2022-10-19T09:37:26.734Z,35.00
2022-10-19T09:39:58.370Z,29.75
2022-10-19T09:42:34.807Z,29.50
2022-10-19T09:45:14.219Z,37.00
2022-10-19T09:47:47.734Z,37.50
2022-10-19T09:50:17.129Z,37.00
2022-10-19T09:52:48.010Z,36.00
2022-10-19T09:55:17.872Z,34.75
2022-10-19T09:57:48.523Z,34.50
2022-10-19T10:00:26.417Z,38.50
2022-10-19T10:02:58.677Z,41.00
2022-10-19T10:05:35.772Z,39.25
2022-10-19T10:08:06.616Z,35.25
2022-10-19T10:10:40.596Z,36.25
2022-10-19T10:13:20.754Z,37.75
2022-10-19T10:15:53.543Z,37.75
2022-10-19T10:18:25.644Z,36.75
2022-10-19T10:21:07.111Z,36.75
2022-10-19T10:23:38.132Z,38.00
2022-10-19T10:26:17.153Z,40.00
2022-10-19T10:28:51.828Z,37.75
2022-10-19T10:31:24.961Z,35.75
2022-10-19T10:34:00.025Z,34.50
2022-10-19T10:36:33.759Z,37.75
2022-10-19T10:39:07.135Z,36.75
2022-10-19T10:41:39.944Z,35.75
2022-10-19T10:44:17.261Z,32.50
2022-10-19T10:46:49.953Z,35.25
2022-10-19T10:49:23.208Z,35.50
2022-10-19T10:51:56.170Z,32.50
2022-10-19T10:54:28.521Z,34.25
2022-10-19T10:57:18.075Z,32.75
2022-10-19T10:59:54.548Z,34.50
2022-10-19T11:02:42.446Z,34.75
2022-10-19T11:05:11.998Z,31.25
2022-10-19T11:07:43.773Z,34.00
2022-10-19T11:10:18.805Z,34.75
2022-10-19T11:12:51.654Z,38.00
2022-10-19T11:15:24.274Z,34.00
2022-10-19T11:18:09.843Z,32.75
2022-10-19T11:20:43.460Z,34.50
2022-10-19T11:23:21.620Z,33.50
2022-10-19T11:26:02.928Z,34.50
2022-10-19T11:28:32.905Z,34.50
2022-10-19T11:31:20.947Z,33.00
2022-10-19T11:33:50.596Z,35.50
2022-10-19T11:36:22.963Z,32.25
2022-10-19T11:38:52.408Z,30.75
2022-10-19T11:41:28.358Z,31.75
2022-10-19T11:43:57.708Z,34.25
2022-10-19T11:46:33.262Z,34.75
2022-10-19T11:49:18.748Z,35.00
2022-10-19T11:52:03.998Z,34.00
2022-10-19T11:54:39.377Z,34.25
2022-10-19T11:57:28.038Z,33.25
2022-10-19T12:00:14.354Z,32.50
2022-10-19T12:02:48.704Z,34.25
2022-10-19T12:05:22.688Z,33.00
2022-10-19T12:08:11.278Z,33.00
2022-10-19T12:10:55.563Z,32.00
2022-10-19T12:13:31.898Z,36.50
2022-10-19T12:16:02.305Z,28.00
2022-10-19T12:18:36.191Z,34.25
2022-10-19T12:21:25.893Z,32.75
2022-10-19T12:23:57.309Z,34.75
2022-10-19T12:26:29.757Z,31.50
2022-10-19T12:29:02.059Z,33.25
2022-10-19T12:31:32.413Z,34.50
2022-10-19T12:34:12.032Z,32.25
2022-10-19T12:36:57.151Z,34.00
2022-10-19T12:39:27.003Z,35.00
2022-10-19T12:42:02.605Z,34.00
2022-10-19T12:44:52.712Z,32.25
2022-10-19T12:47:25.574Z,32.50
2022-10-19T12:49:59.145Z,28.75
2022-10-19T12:52:40.422Z,34.00
2022-10-19T12:55:14.907Z,31.00
2022-10-19T12:57:49.424Z,31.75
2022-10-19T13:00:22.291Z,34.75
2022-10-19T13:03:12.295Z,31.25
2022-10-19T13:05:42.138Z,32.75
2022-10-19T13:08:14.488Z,35.00
2022-10-19T13:11:04.294Z,30.75
2022-10-19T13:13:49.751Z,34.00
2022-10-19T13:16:31.853Z,31.75
2022-10-19T13:19:01.868Z,31.00
2022-10-19T13:21:49.635Z,33.50
2022-10-19T13:24:22.220Z,33.00
2022-10-19T13:27:07.204Z,32.25
2022-10-19T13:29:42.760Z,31.75
2022-10-19T13:32:30.728Z,32.00
2022-10-19T13:35:18.161Z,31.25
2022-10-19T13:37:47.715Z,32.75
2022-10-19T13:40:24.524Z,32.25
2022-10-19T13:43:00.238Z,30.75
2022-10-19T13:45:29.910Z,34.00
2022-10-19T13:48:14.037Z,34.50
2022-10-19T13:50:46.773Z,30.25
2022-10-19T13:53:22.310Z,32.25
2022-10-19T13:56:01.034Z,31.25
2022-10-19T13:58:33.734Z,33.50
2022-10-19T14:01:13.961Z,32.25
2022-10-19T14:03:47.391Z,34.50
2022-10-19T14:06:43.466Z,32.75
2022-10-19T14:09:33.043Z,32.00
2022-10-19T14:12:14.075Z,35.00
2022-10-19T14:14:45.467Z,32.00
2022-10-19T14:17:20.968Z,34.00
2022-10-19T14:19:53.510Z,33.25
2022-10-19T14:22:27.593Z,36.75
2022-10-19T14:25:16.249Z,33.50
2022-10-19T14:27:48.073Z,33.25
2022-10-19T14:30:33.200Z,32.50
2022-10-19T14:33:08.798Z,34.00
2022-10-19T14:35:40.464Z,30.00
2022-10-19T14:38:17.747Z,32.50
2022-10-19T14:40:47.973Z,34.50
2022-10-19T14:43:25.586Z,35.25
2022-10-19T14:46:10.641Z,34.00
2022-10-19T14:48:42.025Z,33.75
2022-10-19T14:51:19.270Z,33.25
2022-10-19T14:53:49.105Z,32.75
2022-10-19T14:56:23.634Z,33.25
2022-10-19T14:58:57.076Z,34.25
2022-10-19T15:01:27.774Z,33.50
2022-10-19T15:03:58.115Z,35.50
2022-10-19T15:06:30.320Z,33.25
2022-10-19T15:09:04.884Z,34.25
2022-10-19T15:11:48.230Z,36.00
2022-10-19T15:14:26.154Z,32.50
2022-10-19T15:16:57.454Z,36.75
2022-10-19T15:19:40.079Z,35.25
2022-10-19T15:22:13.011Z,34.75
2022-10-19T15:24:56.932Z,34.00
2022-10-19T15:27:55.106Z,36.25
2022-10-19T15:30:33.349Z,36.25
2022-10-19T15:33:03.434Z,38.50
2022-10-19T15:35:34.193Z,35.50
2022-10-19T15:38:07.336Z,38.50
2022-10-19T15:40:39.003Z,37.25
2022-10-19T15:43:26.746Z,35.00
2022-10-19T15:46:02.984Z,35.75
2022-10-19T15:48:51.140Z,36.25
2022-10-19T15:51:27.482Z,36.00
2022-10-19T15:54:04.076Z,36.00
2022-10-19T15:56:35.765Z,37.00
2022-10-19T15:59:07.111Z,38.00
2022-10-19T16:01:37.139Z,39.00
2022-10-19T16:04:07.235Z,37.00
2022-10-19T16:06:38.744Z,36.00
2022-10-19T16:09:09.796Z,34.75
2022-10-19T16:11:39.485Z,39.25
2022-10-19T16:14:09.298Z,39.00
2022-10-19T16:16:38.987Z,37.50
2022-10-19T16:19:08.468Z,36.75
2022-10-19T16:21:38.612Z,37.00
2022-10-19T16:24:08.206Z,38.50
2022-10-19T16:26:37.748Z,42.25
2022-10-19T16:29:07.275Z,42.25
2022-10-19T16:31:36.755Z,39.25
2022-10-19T16:34:06.261Z,37.00
2022-10-19T16:36:35.724Z,40.00
2022-10-19T16:39:06.178Z,41.50
2022-10-19T16:41:35.866Z,34.00
2022-10-19T16:44:05.353Z,39.00
2022-10-19T16:46:34.803Z,36.50
2022-10-19T16:49:04.194Z,40.25
2022-10-19T16:51:40.562Z,38.75
2022-10-19T16:54:12.328Z,39.50
2022-10-19T16:56:46.581Z,39.50
2022-10-19T16:59:17.943Z,39.50
2022-10-19T17:01:48.545Z,38.50
2022-10-19T17:04:19.776Z,37.75
2022-10-19T17:06:50.163Z,35.50
2022-10-19T17:12:10.220Z,38.25
2022-10-19T17:14:40.835Z,40.50
2022-10-19T17:17:12.019Z,41.00
2022-10-19T17:19:41.914Z,40.00
2022-10-19T17:22:11.411Z,38.00
2022-10-19T17:24:40.809Z,39.00
2022-10-19T17:27:10.453Z,40.25
2022-10-19T17:29:40.002Z,39.50
2022-10-19T17:32:09.637Z,40.00
2022-10-19T17:34:39.344Z,36.50
2022-10-19T17:37:08.886Z,38.00
2022-10-19T17:39:38.439Z,39.75
2022-10-19T17:42:07.979Z,41.25
2022-10-19T17:44:37.700Z,38.75
2022-10-19T17:47:07.290Z,39.25
2022-10-19T17:49:36.724Z,40.50
2022-10-19T17:52:06.175Z,41.75
2022-10-19T17:54:43.593Z,41.50
2022-10-19T17:57:24.077Z,41.00
2022-10-19T17:59:55.858Z,43.50
2022-10-19T18:02:25.565Z,38.75
2022-10-19T18:04:55.171Z,40.50
2022-10-19T18:07:26.971Z,41.00
2022-10-19T18:09:56.429Z,43.25
2022-10-19T18:12:25.989Z,38.75
2022-10-19T18:14:55.450Z,41.25
2022-10-19T18:17:27.690Z,36.50
2022-10-19T18:19:57.462Z,42.00
2022-10-19T18:22:26.894Z,40.00
2022-10-19T18:24:56.408Z,40.75
2022-10-19T18:27:26.916Z,43.25
2022-10-19T18:29:56.581Z,42.00
2022-10-19T18:32:26.056Z,43.25
2022-10-19T18:34:55.548Z,42.25
2022-10-19T18:37:24.995Z,41.25
2022-10-19T18:39:54.503Z,42.25
2022-10-19T18:42:24.036Z,41.00
2022-10-19T18:44:53.499Z,42.00
2022-10-19T18:47:23.327Z,41.00
2022-10-19T18:49:52.853Z,41.25
2022-10-19T18:52:22.344Z,40.25
2022-10-19T18:54:51.839Z,42.75
2022-10-19T18:57:21.231Z,43.75
2022-10-19T18:59:50.665Z,41.75
2022-10-19T19:02:22.768Z,39.25
2022-10-19T19:04:58.078Z,41.50
2022-10-19T19:07:27.543Z,44.00
2022-10-19T19:09:57.080Z,42.50
2022-10-19T19:12:26.663Z,43.50
2022-10-19T19:14:56.252Z,45.00
2022-10-19T19:17:25.725Z,44.50
2022-10-19T19:19:55.309Z,45.00
2022-10-19T19:22:27.431Z,41.25
2022-10-19T19:24:56.871Z,43.50
2022-10-19T19:27:30.842Z,42.25
2022-10-19T19:30:02.075Z,44.00
2022-10-19T19:32:31.545Z,43.25
2022-10-19T19:35:01.040Z,45.50
2022-10-19T19:37:31.389Z,41.75
2022-10-19T19:40:00.872Z,43.25
2022-10-19T19:42:30.318Z,44.00
2022-10-19T19:44:59.897Z,44.00
2022-10-19T19:47:29.324Z,41.75
2022-10-19T19:49:58.829Z,42.00
2022-10-19T19:52:28.347Z,45.00
2022-10-19T19:54:57.881Z,45.75
2022-10-19T19:57:27.384Z,46.00
2022-10-19T19:59:56.847Z,43.25
2022-10-19T20:02:26.301Z,41.75
2022-10-19T20:04:55.726Z,45.75
2022-10-19T20:07:25.230Z,43.50
2022-10-19T20:09:55.299Z,44.50
2022-10-19T20:12:24.742Z,43.00
2022-10-19T20:14:54.755Z,43.00
2022-10-19T20:17:26.314Z,42.50
2022-10-19T20:19:55.742Z,43.00
2022-10-19T20:22:27.450Z,45.50
2022-10-19T20:24:56.906Z,44.00
2022-10-19T20:27:27.282Z,44.00
2022-10-19T20:29:59.885Z,44.00
2022-10-19T20:32:30.788Z,42.75
2022-10-19T20:35:00.333Z,43.00
2022-10-19T20:37:30.470Z,44.75
2022-10-19T20:40:00.716Z,45.75
2022-10-19T20:42:31.042Z,42.25
2022-10-19T20:45:00.528Z,44.00
2022-10-19T20:47:30.117Z,44.00
2022-10-19T20:49:59.539Z,44.00
2022-10-19T20:52:29.022Z,44.00
2022-10-19T20:54:58.443Z,46.75
2022-10-19T20:57:27.867Z,46.25
2022-10-19T20:59:57.407Z,45.00
2022-10-19T21:02:26.797Z,44.00
2022-10-19T21:04:56.326Z,44.75
2022-10-19T21:07:25.845Z,45.25
2022-10-19T21:09:55.969Z,44.00
2022-10-19T21:12:25.426Z,43.75
2022-10-19T21:14:54.806Z,47.25
2022-10-19T21:17:24.289Z,46.25
2022-10-19T21:19:57.222Z,45.50
2022-10-19T21:22:26.973Z,44.00
2022-10-19T21:24:56.402Z,44.75
2022-10-19T21:27:25.848Z,44.75
2022-10-19T21:29:55.356Z,46.00
2022-10-19T21:32:24.925Z,46.00
2022-10-19T21:34:54.475Z,45.50
2022-10-19T21:37:23.940Z,45.00
2022-10-19T21:39:53.385Z,46.00
2022-10-19T21:42:22.843Z,45.50
2022-10-19T21:45:01.014Z,47.00
2022-10-19T21:47:31.197Z,43.75
2022-10-19T21:50:00.766Z,46.00
2022-10-19T21:52:30.271Z,45.25
2022-10-19T21:54:59.676Z,46.00
2022-10-19T21:57:29.036Z,46.00
2022-10-19T21:59:58.457Z,43.25
2022-10-19T22:02:27.943Z,47.00
2022-10-19T22:04:57.447Z,44.00
2022-10-19T22:07:26.902Z,48.75
2022-10-19T22:09:56.551Z,44.00
2022-10-19T22:12:26.192Z,42.25
2022-10-19T22:14:55.746Z,43.25
2022-10-19T22:17:25.256Z,44.00
2022-10-19T22:19:54.850Z,46.25
2022-10-19T22:22:24.298Z,47.00
2022-10-19T22:24:53.676Z,46.25
2022-10-19T22:27:23.202Z,45.25
2022-10-19T22:29:55.588Z,44.50
2022-10-19T22:32:25.435Z,44.00
2022-10-19T22:34:54.912Z,43.00
2022-10-19T22:37:24.394Z,45.25
2022-10-19T22:39:53.943Z,46.00
2022-10-19T22:42:23.269Z,46.50
2022-10-19T22:44:52.473Z,43.00
2022-10-19T22:47:21.752Z,45.75
2022-10-19T22:49:50.924Z,44.50
2022-10-19T22:52:20.182Z,43.75
2022-10-19T22:54:49.394Z,44.75
2022-10-19T22:57:18.825Z,45.00
2022-10-19T22:59:48.016Z,40.00
2022-10-19T23:02:17.211Z,43.75
2022-10-19T23:04:46.475Z,47.75
2022-10-19T23:07:15.679Z,47.00
2022-10-19T23:09:44.879Z,45.25
2022-10-19T23:12:14.253Z,47.25
2022-10-19T23:14:43.407Z,43.25
2022-10-19T23:17:12.522Z,44.00
2022-10-19T23:19:41.700Z,43.25
2022-10-19T23:22:10.932Z,44.25
2022-10-19T23:24:40.072Z,44.75
2022-10-19T23:27:09.175Z,42.50
2022-10-19T23:29:38.270Z,44.00
2022-10-19T23:32:07.533Z,42.50
2022-10-19T23:34:36.636Z,46.00
2022-10-19T23:37:05.826Z,48.00
2022-10-19T23:39:35.182Z,49.50
2022-10-19T23:42:04.484Z,48.00
2022-10-19T23:44:33.991Z,45.25
2022-10-19T23:47:03.487Z,47.00
2022-10-19T23:49:33.021Z,43.00
2022-10-19T23:52:02.448Z,44.00
2022-10-19T23:54:31.904Z,47.50
2022-10-19T23:57:01.362Z,46.75
2022-10-19T23:59:30.778Z,46.00
